PST,Max TemperatureF,Mean TemperatureF,Min TemperatureF,Max Dew PointF,MeanDew PointF,Min DewpointF,Max Humidity, Mean Humidity, Min Humidity, Max Sea Level PressureIn, Mean Sea Level PressureIn, Min Sea Level PressureIn, Max VisibilityMiles, Mean VisibilityMiles, Min VisibilityMiles, Max Wind SpeedMPH, Mean Wind SpeedMPH, Max Gust SpeedMPH,PrecipitationIn, CloudCover, Events, WindDirDegrees
2014-1-1,48,34,21,31,21,15,96,79,46,30.38,30.27,30.17,10,4,0,8,2,,0.00,1,Fog,239
2014-1-2,50,36,21,29,24,18,92,74,43,30.30,30.15,30.08,10,10,8,7,3,,0.00,2,,62
2014-1-3,55,38,21,33,25,17,92,73,37,30.08,29.98,29.90,10,10,7,8,3,22,0.00,1,,101
2014-1-4,44,32,17,22,14,9,88,56,25,30.27,30.13,29.94,10,10,9,10,6,,0.00,1,,1
2014-1-5,42,28,14,16,12,8,80,59,27,30.48,30.31,30.26,10,10,10,6,3,,0.00,0,,21
2014-1-6,39,26,14,18,14,10,84,60,34,30.32,30.24,30.13,10,10,10,6,3,,0.00,5,,101
2014-1-7,50,34,17,22,18,13,85,60,25,30.21,30.07,29.98,10,10,10,15,4,23,0.00,5,,92
2014-1-8,50,36,21,29,23,16,81,65,44,30.14,30.02,29.98,10,10,10,9,4,,0.00,4,,152
2014-1-9,52,44,35,30,27,25,70,54,38,30.07,30.01,29.96,10,10,10,15,8,22,0.00,6,,241
2014-1-10,55,42,30,32,29,25,82,62,36,30.18,30.10,30.04,10,10,10,12,7,,0.00,5,,190
2014-1-11,59,48,36,32,29,22,73,51,33,30.08,29.97,29.88,10,10,3,21,11,30,0.00,4,,223
2014-1-12,48,36,24,23,19,16,75,53,28,30.36,30.22,30.04,10,10,10,9,5,,0.00,1,,123
2014-1-13,51,35,19,22,17,14,81,60,28,30.57,30.43,30.35,10,10,9,9,5,,0.00,2,,173
2014-1-14,52,34,15,22,18,12,88,63,30,30.67,30.49,30.45,10,10,10,6,2,,0.00,0,,74
2014-1-15,51,34,17,23,18,12,85,62,29,30.61,30.43,30.37,10,10,10,7,3,,0.00,1,,194
2014-1-16,50,33,16,23,18,12,84,64,33,30.52,30.35,30.28,10,10,10,8,2,,0.00,0,,176
2014-1-17,51,33,15,22,18,11,88,61,32,30.40,30.25,30.19,10,10,10,7,2,,0.00,0,,144
2014-1-18,51,33,15,22,17,10,84,60,31,30.38,30.20,30.15,10,10,10,8,4,,0.00,0,,134
2014-1-19,53,34,15,21,17,10,81,59,26,30.28,30.14,30.09,10,10,8,7,4,,0.00,1,,29
2014-1-20,53,34,15,22,16,11,88,58,28,30.27,30.22,30.15,10,10,10,9,4,,0.00,0,,165
2014-1-21,51,34,16,20,16,12,84,58,29,30.40,30.24,30.17,10,10,8,8,3,,0.00,3,,108
2014-1-22,53,35,17,21,16,11,81,57,22,30.26,30.09,30.00,10,10,10,8,4,,0.00,0,,27
2014-1-23,48,34,19,19,17,13,78,56,32,30.23,30.13,30.05,10,10,10,7,3,,0.00,3,,210
2014-1-24,54,40,23,19,16,12,63,45,22,30.42,30.28,30.24,10,10,10,13,7,,0.00,1,,117
2014-1-25,53,36,19,17,14,11,71,48,20,30.43,30.24,30.16,10,10,10,6,4,,0.00,1,,178
2014-1-26,55,36,16,16,14,9,77,47,19,30.25,30.09,30.01,10,10,10,6,3,,0.00,1,,143
2014-1-27,55,36,18,23,16,9,68,46,22,30.16,30.07,30.03,10,10,10,9,2,,0.00,5,,79
2014-1-28,57,46,35,31,26,21,62,49,36,30.24,30.11,30.08,10,10,10,7,4,,0.00,7,Rain,141
2014-1-29,66,54,41,42,35,29,92,53,33,30.10,29.93,29.83,10,9,2,26,11,37,0.09,7,Rain,224
2014-1-30,42,38,33,38,33,30,100,89,70,29.94,29.83,29.74,10,6,1,15,7,,0.41,8,Rain-Snow,216
2014-1-31,42,35,27,32,30,25,96,87,51,29.96,29.86,29.76,10,8,2,18,7,21,0.01,6,Snow,325